createdAt,value
2019-03-01T00:01:34.172Z,6.90
2019-03-01T00:05:16.210Z,8.07
2019-03-01T00:08:55.733Z,7.30
2019-03-01T00:12:49.268Z,8.37
2019-03-01T00:16:23.307Z,9.20
2019-03-01T00:19:51.599Z,8.63
2019-03-01T00:23:08.124Z,8.10
2019-03-01T00:26:39.998Z,6.77
2019-03-01T00:30:27.133Z,7.20
2019-03-01T00:33:55.928Z,6.50
2019-03-01T00:37:20.311Z,7.07
2019-03-01T00:40:41.175Z,7.10
2019-03-01T00:44:17.059Z,8.33
2019-03-01T00:47:23.497Z,6.60
2019-03-01T00:50:30.297Z,7.20
2019-03-01T00:53:37.272Z,7.50
2019-03-01T00:56:43.429Z,7.43
2019-03-01T00:59:50.142Z,7.10
2019-03-01T01:02:56.513Z,7.00
2019-03-01T01:06:03.233Z,7.17
2019-03-01T01:09:10.124Z,7.97
2019-03-01T01:12:20.619Z,7.07
2019-03-01T01:15:27.020Z,7.23
2019-03-01T01:18:33.686Z,7.37
2019-03-01T01:21:40.432Z,7.07
2019-03-01T01:24:46.646Z,7.10
2019-03-01T01:27:53.447Z,5.93
2019-03-01T01:30:59.802Z,6.40
2019-03-01T01:34:06.128Z,5.87
2019-03-01T01:37:13.489Z,6.00
2019-03-01T01:40:20.000Z,7.40
2019-03-01T01:43:26.359Z,6.43
2019-03-01T01:46:33.472Z,6.03
2019-03-01T01:49:40.298Z,5.83
2019-03-01T01:52:46.814Z,5.70
2019-03-01T01:55:53.209Z,6.10
2019-03-01T01:58:59.818Z,6.63
2019-03-01T02:02:06.373Z,6.57
2019-03-01T02:05:13.114Z,8.53
2019-03-01T02:08:19.939Z,9.73
2019-03-01T02:11:26.070Z,10.87
2019-03-01T02:14:32.600Z,11.17
2019-03-01T02:17:39.525Z,10.40
2019-03-01T02:20:46.187Z,11.53
2019-03-01T02:23:53.375Z,11.40
2019-03-01T02:27:28.937Z,12.03
2019-03-01T02:30:36.495Z,11.50
2019-03-01T02:33:43.536Z,11.67
2019-03-01T02:36:50.487Z,11.57
2019-03-01T02:39:57.225Z,12.43
2019-03-01T02:43:05.029Z,11.77
2019-03-01T02:46:11.354Z,12.07
2019-03-01T02:49:19.610Z,12.33
2019-03-01T02:52:26.071Z,12.23
2019-03-01T02:55:32.938Z,12.40
2019-03-01T02:58:39.350Z,12.47
2019-03-01T03:01:46.376Z,12.47
2019-03-01T03:04:52.952Z,12.87
2019-03-01T03:08:04.282Z,13.00
2019-03-01T03:11:10.858Z,11.20
2019-03-01T03:14:17.285Z,11.47
2019-03-01T03:17:23.905Z,11.70
2019-03-01T03:20:32.630Z,10.40
2019-03-01T03:23:39.040Z,10.53
2019-03-01T03:26:48.480Z,10.20
2019-03-01T03:29:54.089Z,10.83
2019-03-01T03:33:01.319Z,10.43
2019-03-01T03:36:07.840Z,9.90
2019-03-01T03:39:14.637Z,10.30
2019-03-01T03:42:21.264Z,9.17
2019-03-01T03:45:27.984Z,9.80
2019-03-01T03:48:36.238Z,9.23
2019-03-01T03:51:43.028Z,8.73
2019-03-01T03:54:49.813Z,8.40
2019-03-01T03:57:56.260Z,9.70
2019-03-01T04:01:03.574Z,9.23
2019-03-01T04:04:10.404Z,9.37
2019-03-01T04:07:17.124Z,10.73
2019-03-01T04:10:24.150Z,8.90
2019-03-01T04:13:31.458Z,11.07
2019-03-01T04:16:39.279Z,9.37
2019-03-01T04:19:46.159Z,8.17
2019-03-01T04:22:53.045Z,8.83
2019-03-01T04:25:59.698Z,6.90
2019-03-01T04:29:06.565Z,7.60
2019-03-01T04:32:13.072Z,6.80
2019-03-01T04:35:20.663Z,6.33
2019-03-01T04:38:27.678Z,6.17
2019-03-01T04:41:35.158Z,5.73
2019-03-01T04:44:41.909Z,6.40
2019-03-01T04:47:48.474Z,6.00
2019-03-01T04:50:55.238Z,5.87
2019-03-01T04:54:02.159Z,6.37
2019-03-01T04:57:08.782Z,5.93
2019-03-01T05:00:17.322Z,5.47
2019-03-01T05:03:23.759Z,4.50
2019-03-01T05:06:30.214Z,3.93
2019-03-01T05:09:36.903Z,3.80
2019-03-01T05:12:44.060Z,4.00
2019-03-01T05:15:50.895Z,3.10
2019-03-01T05:18:57.570Z,3.67
2019-03-01T05:22:04.892Z,3.97
2019-03-01T05:25:12.180Z,3.17
2019-03-01T05:28:18.696Z,3.50
2019-03-01T05:31:26.188Z,3.20
2019-03-01T05:34:32.749Z,3.67
2019-03-01T05:37:39.341Z,2.90
2019-03-01T05:40:45.705Z,3.00
2019-03-01T05:43:54.461Z,3.80
2019-03-01T05:47:01.344Z,2.77
2019-03-01T05:50:08.736Z,2.63
2019-03-01T05:53:15.099Z,2.63
2019-03-01T05:56:21.938Z,2.33
2019-03-01T05:59:29.713Z,2.50
2019-03-01T06:03:29.233Z,2.60
2019-03-01T06:06:50.672Z,2.77
2019-03-01T06:10:07.980Z,3.10
2019-03-01T06:13:53.530Z,6.90
2019-03-01T06:17:52.360Z,3.93
2019-03-01T06:21:10.293Z,4.60
2019-03-01T06:25:00.571Z,3.97
2019-03-01T06:28:50.685Z,4.07
2019-03-01T06:32:25.776Z,3.83
2019-03-01T06:36:02.873Z,2.50
2019-03-01T06:39:44.538Z,2.60
2019-03-01T06:43:16.744Z,2.03
2019-03-01T06:47:01.506Z,2.47
2019-03-01T06:50:16.845Z,2.30
2019-03-01T06:53:23.019Z,1.90
2019-03-01T06:56:29.822Z,2.53
2019-03-01T06:59:36.050Z,2.50
2019-03-01T07:02:45.683Z,2.00
2019-03-01T07:05:52.193Z,2.10
2019-03-01T07:08:59.152Z,1.73
2019-03-01T07:12:06.311Z,2.00
2019-03-01T07:15:12.849Z,2.17
2019-03-01T07:18:19.554Z,1.97
2019-03-01T07:21:26.511Z,1.90
2019-03-01T07:24:33.240Z,2.53
2019-03-01T07:27:39.741Z,2.50
2019-03-01T07:30:47.438Z,2.27
2019-03-01T07:33:54.836Z,2.50
2019-03-01T07:37:01.446Z,3.10
2019-03-01T07:40:08.619Z,3.10
2019-03-01T07:43:15.389Z,2.60
2019-03-01T07:46:22.776Z,3.90
2019-03-01T07:49:29.979Z,2.97
2019-03-01T07:52:36.889Z,3.50
2019-03-01T07:55:44.213Z,3.20
2019-03-01T07:58:50.933Z,3.80
2019-03-01T08:02:00.715Z,3.70
2019-03-01T08:05:07.717Z,2.27
2019-03-01T08:08:15.483Z,2.23
2019-03-01T08:11:22.223Z,2.50
2019-03-01T08:14:31.531Z,2.70
2019-03-01T08:17:37.026Z,3.07
2019-03-01T08:20:45.230Z,2.53
2019-03-01T08:23:51.980Z,2.50
2019-03-01T08:26:58.689Z,2.30
2019-03-01T08:30:06.946Z,2.97
2019-03-01T08:33:15.979Z,3.10
2019-03-01T08:36:22.746Z,3.20
2019-03-01T08:39:29.185Z,2.70
2019-03-01T08:42:36.341Z,4.37
2019-03-01T08:45:44.304Z,8.30
2019-03-01T08:48:51.545Z,3.20
2019-03-01T08:51:58.464Z,2.23
2019-03-01T08:55:08.721Z,4.67
2019-03-01T08:58:15.211Z,1.30
2019-03-01T09:01:22.796Z,0.80
2019-03-01T09:04:29.664Z,1.00
2019-03-01T09:07:35.740Z,0.93
2019-03-01T09:10:41.445Z,1.60
2019-03-01T09:13:48.993Z,1.40
2019-03-01T09:16:56.234Z,1.70
2019-03-01T09:20:03.937Z,1.83
2019-03-01T09:23:23.547Z,2.13
2019-03-01T09:26:20.766Z,2.40
2019-03-01T09:29:28.144Z,2.47
2019-03-01T09:32:36.655Z,2.23
2019-03-01T09:36:14.406Z,2.63
2019-03-01T09:39:20.366Z,2.70
2019-03-01T09:42:27.781Z,2.73
2019-03-01T09:45:36.424Z,2.10
2019-03-01T09:48:45.603Z,2.23
2019-03-01T09:51:51.948Z,2.00
2019-03-01T09:55:01.022Z,2.13
2019-03-01T09:58:08.673Z,2.40
2019-03-01T10:01:17.885Z,2.00
2019-03-01T10:04:26.454Z,1.90
2019-03-01T10:07:33.732Z,1.93
2019-03-01T10:10:40.903Z,2.40
2019-03-01T10:13:48.230Z,2.27
2019-03-01T10:20:40.179Z,1.70
2019-03-01T10:23:46.901Z,2.00
2019-03-01T10:26:54.138Z,1.90
2019-03-01T10:30:01.519Z,2.53
2019-03-01T10:33:08.817Z,2.10
2019-03-01T10:36:15.362Z,2.30
2019-03-01T10:39:23.679Z,2.23
2019-03-01T10:42:30.567Z,1.90
2019-03-01T10:45:37.510Z,1.80
2019-03-01T10:48:44.404Z,1.50
2019-03-01T10:51:51.838Z,2.20
2019-03-01T10:54:58.716Z,1.67
2019-03-01T10:58:06.318Z,1.83
2019-03-01T11:01:13.591Z,1.90
2019-03-01T11:04:24.813Z,1.83
2019-03-01T11:07:31.917Z,1.67
2019-03-01T11:10:39.232Z,1.83
2019-03-01T11:13:46.744Z,1.97
2019-03-01T11:16:55.332Z,1.23
2019-03-01T11:20:02.135Z,1.80
2019-03-01T11:23:09.067Z,2.00
2019-03-01T11:26:16.115Z,1.97
2019-03-01T11:29:23.626Z,1.77
2019-03-01T11:32:30.894Z,1.73
2019-03-01T11:35:37.955Z,1.83
2019-03-01T11:38:44.758Z,1.70
2019-03-01T11:41:52.012Z,1.57
2019-03-01T11:44:58.958Z,2.10
2019-03-01T11:48:06.631Z,1.50
2019-03-01T11:51:13.862Z,1.80
2019-03-01T11:54:23.532Z,1.90
2019-03-01T11:57:30.490Z,2.10
2019-03-01T12:00:37.236Z,2.53
2019-03-01T12:03:44.128Z,1.90
2019-03-01T12:06:50.860Z,2.10
2019-03-01T12:09:58.264Z,2.00
2019-03-01T12:13:05.697Z,2.30
2019-03-01T12:16:13.160Z,2.87
2019-03-01T12:19:21.213Z,2.03
2019-03-01T12:22:28.483Z,2.10
2019-03-01T12:25:35.288Z,1.93
2019-03-01T12:28:42.457Z,1.77
2019-03-01T12:31:49.308Z,1.90
2019-03-01T12:34:56.229Z,1.80
2019-03-01T12:38:03.246Z,1.80
2019-03-01T12:41:10.735Z,1.80
2019-03-01T12:44:17.904Z,1.90
2019-03-01T12:47:25.281Z,2.10
2019-03-01T12:50:32.570Z,2.10
2019-03-01T12:53:39.858Z,2.47
2019-03-01T12:56:46.810Z,2.03
2019-03-01T12:59:55.807Z,2.30
2019-03-01T13:03:05.202Z,2.40
2019-03-01T13:06:13.886Z,3.23
2019-03-01T13:09:23.495Z,2.87
2019-03-01T13:12:31.238Z,2.83
2019-03-01T13:15:38.140Z,4.07
2019-03-01T13:18:47.719Z,3.30
2019-03-01T13:21:54.012Z,19.00
2019-03-01T13:25:00.897Z,3.53
2019-03-01T13:28:08.571Z,3.60
2019-03-01T13:31:15.988Z,3.00
2019-03-01T13:34:23.226Z,4.47
2019-03-01T13:37:31.687Z,3.40
2019-03-01T13:40:39.583Z,4.40
2019-03-01T13:43:46.970Z,4.60
2019-03-01T13:46:53.801Z,5.40
2019-03-01T13:50:05.673Z,5.30
2019-03-01T13:53:10.989Z,5.00
2019-03-01T13:56:18.163Z,5.00
2019-03-01T13:59:25.004Z,4.43
2019-03-01T14:02:33.468Z,7.10
2019-03-01T14:05:40.517Z,8.30
2019-03-01T14:08:49.297Z,5.13
2019-03-01T14:11:59.429Z,5.20
2019-03-01T14:15:07.122Z,5.00
2019-03-01T14:18:14.123Z,6.67
2019-03-01T14:21:21.730Z,5.13
2019-03-01T14:24:31.441Z,5.10
2019-03-01T14:27:38.888Z,5.17
2019-03-01T14:30:45.913Z,4.60
2019-03-01T14:33:55.413Z,4.40
2019-03-01T14:37:02.782Z,4.80
2019-03-01T14:40:11.585Z,5.00
2019-03-01T14:43:20.259Z,5.80
2019-03-01T14:46:27.572Z,6.20
2019-03-01T14:49:36.041Z,5.80
2019-03-01T14:52:43.398Z,6.97
2019-03-01T14:55:55.669Z,6.50
2019-03-01T14:59:27.293Z,6.17
2019-03-01T15:02:49.558Z,5.13
2019-03-01T15:05:58.419Z,6.57
2019-03-01T15:09:06.550Z,6.07
2019-03-01T15:12:19.820Z,6.57
2019-03-01T15:15:26.404Z,6.90
2019-03-01T15:18:35.762Z,7.53
2019-03-01T15:21:43.469Z,6.43
2019-03-01T15:24:54.138Z,4.73
2019-03-01T15:28:01.939Z,3.97
2019-03-01T15:31:09.712Z,5.10
2019-03-01T15:34:20.456Z,4.90
2019-03-01T15:37:26.038Z,4.60
2019-03-01T15:40:33.451Z,4.30
2019-03-01T15:43:40.365Z,5.50
2019-03-01T15:46:49.814Z,5.17
2019-03-01T15:49:57.211Z,6.50
2019-03-01T15:53:04.041Z,6.70
2019-03-01T15:56:10.924Z,7.17
2019-03-01T15:59:17.988Z,7.00
2019-03-01T16:02:25.418Z,7.53
2019-03-01T16:05:34.232Z,7.10
2019-03-01T16:08:43.837Z,7.80
2019-03-01T16:11:53.199Z,7.90
2019-03-01T16:15:00.588Z,19.53
2019-03-01T16:18:08.671Z,11.17
2019-03-01T16:21:16.905Z,9.10
2019-03-01T16:24:25.439Z,9.00
2019-03-01T16:27:32.473Z,9.03
2019-03-01T16:30:39.973Z,8.80
2019-03-01T16:33:46.805Z,9.77
2019-03-01T16:36:57.777Z,10.00
2019-03-01T16:40:05.238Z,9.17
2019-03-01T16:43:12.302Z,10.20
2019-03-01T16:46:20.931Z,11.80
2019-03-01T16:49:28.285Z,10.93
2019-03-01T16:52:35.898Z,11.80
2019-03-01T16:55:43.122Z,12.60
2019-03-01T16:58:50.253Z,14.47
2019-03-01T17:01:57.453Z,14.00
2019-03-01T17:05:05.874Z,12.90
2019-03-01T17:08:13.337Z,13.93
2019-03-01T17:11:21.312Z,16.33
2019-03-01T17:14:29.795Z,16.30
2019-03-01T17:17:38.479Z,15.17
2019-03-01T17:20:46.017Z,17.50
2019-03-01T17:23:54.705Z,19.73
2019-03-01T17:27:05.575Z,21.47
2019-03-01T17:30:15.018Z,20.20
2019-03-01T17:33:23.045Z,18.07
2019-03-01T17:36:30.400Z,19.73
2019-03-01T17:39:38.723Z,19.10
2019-03-01T17:42:46.104Z,19.63
2019-03-01T17:45:54.409Z,20.10
2019-03-01T17:49:03.080Z,20.27
2019-03-01T17:52:10.378Z,19.17
2019-03-01T17:55:17.818Z,19.33
2019-03-01T17:58:26.396Z,19.57
2019-03-01T18:01:35.561Z,21.00
2019-03-01T18:04:46.077Z,21.37
2019-03-01T18:07:53.977Z,21.60
2019-03-01T18:11:05.483Z,25.43
2019-03-01T18:14:12.407Z,22.83
2019-03-01T18:17:20.147Z,24.17
2019-03-01T18:20:27.595Z,22.50
2019-03-01T18:23:37.973Z,20.53
2019-03-01T18:26:44.678Z,21.83
2019-03-01T18:29:52.393Z,22.27
2019-03-01T18:32:59.877Z,22.83
2019-03-01T18:36:08.181Z,22.90
2019-03-01T18:39:16.311Z,22.33
2019-03-01T18:42:23.373Z,22.30
2019-03-01T18:45:30.586Z,23.23
2019-03-01T18:48:40.576Z,22.37
2019-03-01T18:51:48.708Z,23.80
2019-03-01T18:54:55.268Z,22.80
2019-03-01T18:58:03.013Z,23.63
2019-03-01T19:01:14.360Z,23.47
2019-03-01T19:04:29.651Z,23.57
2019-03-01T19:07:30.568Z,23.33
2019-03-01T19:10:37.813Z,26.87
2019-03-01T19:13:44.787Z,25.90
2019-03-01T19:16:52.437Z,27.33
2019-03-01T19:20:02.078Z,30.97
2019-03-01T19:23:08.558Z,32.40
2019-03-01T19:26:15.765Z,31.23
2019-03-01T19:29:23.489Z,35.20
2019-03-01T19:32:30.947Z,32.70
2019-03-01T19:35:39.635Z,34.07
2019-03-01T19:38:46.874Z,33.30
2019-03-01T19:41:58.011Z,32.10
2019-03-01T19:45:06.007Z,31.50
2019-03-01T19:48:13.415Z,34.87
2019-03-01T19:51:22.489Z,34.10
2019-03-01T19:54:32.415Z,32.60
2019-03-01T19:57:39.980Z,35.30
2019-03-01T20:00:47.530Z,32.07
2019-03-01T20:03:54.393Z,32.30
2019-03-01T20:07:01.489Z,32.07
2019-03-01T20:10:11.662Z,30.23
2019-03-01T20:13:19.824Z,29.00
2019-03-01T20:16:26.694Z,26.67
2019-03-01T20:19:35.167Z,25.13
2019-03-01T20:22:45.362Z,25.77
2019-03-01T20:25:53.112Z,25.87
2019-03-01T20:29:00.423Z,24.70
2019-03-01T20:32:07.098Z,25.97
2019-03-01T20:35:14.276Z,23.70
2019-03-01T20:38:21.168Z,25.50
2019-03-01T20:41:29.238Z,25.33
2019-03-01T20:44:36.236Z,23.80
2019-03-01T20:47:44.743Z,23.87
2019-03-01T20:50:51.931Z,25.63
2019-03-01T20:54:01.122Z,25.97
2019-03-01T20:57:09.167Z,26.03
2019-03-01T21:00:16.669Z,26.33
2019-03-01T21:03:29.798Z,26.00
2019-03-01T21:06:34.076Z,26.07
2019-03-01T21:09:43.521Z,25.93
2019-03-01T21:12:51.676Z,24.40
2019-03-01T21:15:58.487Z,23.33
2019-03-01T21:19:05.775Z,22.70
2019-03-01T21:22:16.309Z,20.87
2019-03-01T21:25:24.208Z,21.37
2019-03-01T21:28:33.751Z,22.60
2019-03-01T21:31:40.635Z,22.40
2019-03-01T21:34:47.606Z,22.37
2019-03-01T21:37:55.001Z,21.57
2019-03-01T21:41:02.032Z,21.53
2019-03-01T21:44:10.620Z,22.30
2019-03-01T21:47:18.493Z,22.60
2019-03-01T21:50:25.770Z,20.90
2019-03-01T21:53:33.024Z,18.47
2019-03-01T21:56:55.607Z,18.00
2019-03-01T21:59:53.385Z,18.33
2019-03-01T22:03:00.614Z,18.73
2019-03-01T22:06:08.462Z,18.40
2019-03-01T22:09:15.597Z,19.17
2019-03-01T22:12:24.744Z,17.90
2019-03-01T22:15:31.887Z,18.37
2019-03-01T22:18:38.878Z,17.27
2019-03-01T22:21:47.393Z,19.17
2019-03-01T22:24:54.173Z,16.33
2019-03-01T22:28:01.940Z,18.53
2019-03-01T22:31:09.296Z,18.50
2019-03-01T22:34:16.447Z,17.10
2019-03-01T22:37:24.755Z,15.50
2019-03-01T22:40:31.377Z,17.67
2019-03-01T22:43:40.237Z,16.70
2019-03-01T22:46:47.026Z,17.10
2019-03-01T22:49:53.832Z,17.03
2019-03-01T22:53:03.244Z,17.20
2019-03-01T22:56:12.018Z,17.00
2019-03-01T22:59:18.962Z,16.60
2019-03-01T23:02:26.692Z,16.63
2019-03-01T23:05:35.537Z,16.50
2019-03-01T23:08:41.268Z,16.93
2019-03-01T23:11:51.554Z,17.87
2019-03-01T23:14:58.475Z,16.03
2019-03-01T23:18:05.684Z,15.70
2019-03-01T23:21:13.499Z,15.40
2019-03-01T23:24:20.100Z,16.23
2019-03-01T23:27:28.527Z,16.03
2019-03-01T23:30:35.562Z,15.90
2019-03-01T23:33:42.231Z,16.30
2019-03-01T23:36:48.895Z,16.80
2019-03-01T23:39:57.173Z,14.90
2019-03-01T23:43:04.825Z,17.93
2019-03-01T23:46:11.537Z,17.33
2019-03-01T23:49:20.632Z,17.90
2019-03-01T23:52:27.441Z,16.37
2019-03-01T23:55:34.019Z,16.73
2019-03-01T23:58:41.661Z,15.33
